sensor_id;sensor_type;location;lat;lon;timestamp;P1;durP1;ratioP1;P2;durP2;ratioP2
66327;SDS011;53133;52.862;6.602;2023-06-14T00:00:19;4.13;;;2.63;;
66327;SDS011;53133;52.862;6.602;2023-06-14T00:02:45;6.32;;;3.20;;
66327;SDS011;53133;52.862;6.602;2023-06-14T00:05:11;3.95;;;2.53;;
66327;SDS011;53133;52.862;6.602;2023-06-14T00:07:41;4.15;;;2.80;;
66327;SDS011;53133;52.862;6.602;2023-06-14T00:10:13;6.25;;;2.65;;
66327;SDS011;53133;52.862;6.602;2023-06-14T00:12:40;9.27;;;3.13;;
66327;SDS011;53133;52.862;6.602;2023-06-14T00:15:06;4.45;;;2.45;;
66327;SDS011;53133;52.862;6.602;2023-06-14T00:17:34;4.32;;;2.70;;
66327;SDS011;53133;52.862;6.602;2023-06-14T00:20:02;5.13;;;2.22;;
66327;SDS011;53133;52.862;6.602;2023-06-14T00:22:30;5.07;;;2.53;;
66327;SDS011;53133;52.862;6.602;2023-06-14T00:24:56;3.83;;;2.67;;
66327;SDS011;53133;52.862;6.602;2023-06-14T00:27:22;4.97;;;2.65;;
66327;SDS011;53133;52.862;6.602;2023-06-14T00:29:48;6.20;;;2.58;;
66327;SDS011;53133;52.862;6.602;2023-06-14T00:32:13;4.88;;;2.75;;
66327;SDS011;53133;52.862;6.602;2023-06-14T00:34:39;4.03;;;2.65;;
66327;SDS011;53133;52.862;6.602;2023-06-14T00:37:04;4.50;;;2.20;;
66327;SDS011;53133;52.862;6.602;2023-06-14T00:39:30;4.72;;;2.38;;
66327;SDS011;53133;52.862;6.602;2023-06-14T00:41:56;7.53;;;2.80;;
66327;SDS011;53133;52.862;6.602;2023-06-14T00:44:22;5.70;;;2.58;;
66327;SDS011;53133;52.862;6.602;2023-06-14T00:46:48;5.57;;;2.47;;
66327;SDS011;53133;52.862;6.602;2023-06-14T00:49:14;6.05;;;2.65;;
66327;SDS011;53133;52.862;6.602;2023-06-14T00:51:42;4.70;;;2.72;;
66327;SDS011;53133;52.862;6.602;2023-06-14T00:54:08;4.68;;;2.22;;
66327;SDS011;53133;52.862;6.602;2023-06-14T00:56:35;4.20;;;2.60;;
66327;SDS011;53133;52.862;6.602;2023-06-14T00:59:01;6.00;;;2.70;;
66327;SDS011;53133;52.862;6.602;2023-06-14T01:01:28;5.13;;;2.60;;
66327;SDS011;53133;52.862;6.602;2023-06-14T01:03:57;4.10;;;2.53;;
66327;SDS011;53133;52.862;6.602;2023-06-14T01:06:28;5.78;;;2.50;;
66327;SDS011;53133;52.862;6.602;2023-06-14T01:09:18;6.75;;;2.63;;
66327;SDS011;53133;52.862;6.602;2023-06-14T01:12:10;7.25;;;3.00;;
66327;SDS011;53133;52.862;6.602;2023-06-14T01:14:41;4.63;;;2.80;;
66327;SDS011;53133;52.862;6.602;2023-06-14T01:17:07;5.82;;;2.75;;
66327;SDS011;53133;52.862;6.602;2023-06-14T01:19:41;7.03;;;2.67;;
66327;SDS011;53133;52.862;6.602;2023-06-14T01:22:07;5.70;;;2.83;;
66327;SDS011;53133;52.862;6.602;2023-06-14T01:24:34;5.30;;;2.90;;
66327;SDS011;53133;52.862;6.602;2023-06-14T01:26:59;5.80;;;2.75;;
66327;SDS011;53133;52.862;6.602;2023-06-14T01:29:27;3.95;;;2.55;;
66327;SDS011;53133;52.862;6.602;2023-06-14T01:31:58;4.40;;;2.50;;
66327;SDS011;53133;52.862;6.602;2023-06-14T01:34:25;4.95;;;2.90;;
66327;SDS011;53133;52.862;6.602;2023-06-14T01:36:51;5.45;;;2.58;;
66327;SDS011;53133;52.862;6.602;2023-06-14T01:39:19;5.88;;;2.63;;
66327;SDS011;53133;52.862;6.602;2023-06-14T01:41:46;3.88;;;2.53;;
66327;SDS011;53133;52.862;6.602;2023-06-14T01:44:14;4.82;;;2.30;;
66327;SDS011;53133;52.862;6.602;2023-06-14T01:46:42;6.55;;;2.50;;
66327;SDS011;53133;52.862;6.602;2023-06-14T01:49:08;7.00;;;2.72;;
66327;SDS011;53133;52.862;6.602;2023-06-14T01:51:35;4.32;;;2.80;;
66327;SDS011;53133;52.862;6.602;2023-06-14T01:54:01;4.22;;;2.35;;
66327;SDS011;53133;52.862;6.602;2023-06-14T01:56:26;5.70;;;2.78;;
66327;SDS011;53133;52.862;6.602;2023-06-14T01:58:52;5.30;;;2.58;;
66327;SDS011;53133;52.862;6.602;2023-06-14T02:01:18;7.47;;;2.65;;
66327;SDS011;53133;52.862;6.602;2023-06-14T02:03:46;4.85;;;2.53;;
66327;SDS011;53133;52.862;6.602;2023-06-14T02:06:13;4.63;;;2.35;;
66327;SDS011;53133;52.862;6.602;2023-06-14T02:08:38;3.97;;;2.78;;
66327;SDS011;53133;52.862;6.602;2023-06-14T02:11:05;5.80;;;2.70;;
66327;SDS011;53133;52.862;6.602;2023-06-14T02:13:30;3.92;;;2.35;;
66327;SDS011;53133;52.862;6.602;2023-06-14T02:15:56;6.50;;;2.47;;
66327;SDS011;53133;52.862;6.602;2023-06-14T02:18:22;4.60;;;2.40;;
66327;SDS011;53133;52.862;6.602;2023-06-14T02:20:48;8.02;;;2.80;;
66327;SDS011;53133;52.862;6.602;2023-06-14T02:23:14;7.93;;;2.90;;
66327;SDS011;53133;52.862;6.602;2023-06-14T02:25:40;6.30;;;2.67;;
66327;SDS011;53133;52.862;6.602;2023-06-14T02:28:05;6.18;;;2.70;;
66327;SDS011;53133;52.862;6.602;2023-06-14T02:30:31;4.80;;;2.60;;
66327;SDS011;53133;52.862;6.602;2023-06-14T02:32:57;3.42;;;2.53;;
66327;SDS011;53133;52.862;6.602;2023-06-14T02:35:24;6.35;;;2.92;;
66327;SDS011;53133;52.862;6.602;2023-06-14T02:37:51;8.32;;;2.72;;
66327;SDS011;53133;52.862;6.602;2023-06-14T02:40:18;4.63;;;2.65;;
66327;SDS011;53133;52.862;6.602;2023-06-14T02:42:44;6.88;;;2.90;;
66327;SDS011;53133;52.862;6.602;2023-06-14T02:45:09;6.53;;;2.72;;
66327;SDS011;53133;52.862;6.602;2023-06-14T02:47:35;4.95;;;2.83;;
66327;SDS011;53133;52.862;6.602;2023-06-14T02:50:01;3.20;;;2.60;;
66327;SDS011;53133;52.862;6.602;2023-06-14T02:52:27;7.18;;;2.75;;
66327;SDS011;53133;52.862;6.602;2023-06-14T02:54:53;4.60;;;2.60;;
66327;SDS011;53133;52.862;6.602;2023-06-14T02:57:19;5.40;;;2.78;;
66327;SDS011;53133;52.862;6.602;2023-06-14T02:59:45;4.25;;;2.53;;
66327;SDS011;53133;52.862;6.602;2023-06-14T03:02:11;3.53;;;2.53;;
66327;SDS011;53133;52.862;6.602;2023-06-14T03:04:36;6.85;;;2.70;;
66327;SDS011;53133;52.862;6.602;2023-06-14T03:07:02;5.72;;;2.83;;
66327;SDS011;53133;52.862;6.602;2023-06-14T03:09:34;3.00;;;2.60;;
66327;SDS011;53133;52.862;6.602;2023-06-14T03:12:01;6.68;;;3.03;;
66327;SDS011;53133;52.862;6.602;2023-06-14T03:14:28;7.63;;;2.92;;
66327;SDS011;53133;52.862;6.602;2023-06-14T03:16:55;3.47;;;2.42;;
66327;SDS011;53133;52.862;6.602;2023-06-14T03:19:22;6.60;;;2.92;;
66327;SDS011;53133;52.862;6.602;2023-06-14T03:21:48;3.85;;;2.80;;
66327;SDS011;53133;52.862;6.602;2023-06-14T03:24:14;4.45;;;2.60;;
66327;SDS011;53133;52.862;6.602;2023-06-14T03:26:41;3.25;;;2.50;;
66327;SDS011;53133;52.862;6.602;2023-06-14T03:29:07;5.40;;;2.92;;
66327;SDS011;53133;52.862;6.602;2023-06-14T03:31:34;5.82;;;2.85;;
66327;SDS011;53133;52.862;6.602;2023-06-14T03:34:00;4.10;;;2.55;;
66327;SDS011;53133;52.862;6.602;2023-06-14T03:36:26;7.13;;;2.95;;
66327;SDS011;53133;52.862;6.602;2023-06-14T03:38:53;4.90;;;2.90;;
66327;SDS011;53133;52.862;6.602;2023-06-14T03:41:20;4.97;;;2.85;;
66327;SDS011;53133;52.862;6.602;2023-06-14T03:43:45;6.03;;;3.10;;
66327;SDS011;53133;52.862;6.602;2023-06-14T03:46:11;5.30;;;3.20;;
66327;SDS011;53133;52.862;6.602;2023-06-14T03:48:36;2.95;;;2.70;;
66327;SDS011;53133;52.862;6.602;2023-06-14T03:51:03;5.25;;;2.70;;
66327;SDS011;53133;52.862;6.602;2023-06-14T03:53:30;6.55;;;3.00;;
66327;SDS011;53133;52.862;6.602;2023-06-14T03:55:56;4.75;;;3.10;;
66327;SDS011;53133;52.862;6.602;2023-06-14T03:58:22;6.07;;;3.20;;
66327;SDS011;53133;52.862;6.602;2023-06-14T04:00:47;3.72;;;2.75;;
66327;SDS011;53133;52.862;6.602;2023-06-14T04:03:13;6.97;;;2.70;;
66327;SDS011;53133;52.862;6.602;2023-06-14T04:05:40;8.57;;;3.05;;
66327;SDS011;53133;52.862;6.602;2023-06-14T04:08:09;4.22;;;2.78;;
66327;SDS011;53133;52.862;6.602;2023-06-14T04:10:35;4.22;;;2.92;;
66327;SDS011;53133;52.862;6.602;2023-06-14T04:13:01;6.10;;;3.30;;
66327;SDS011;53133;52.862;6.602;2023-06-14T04:15:26;4.95;;;2.92;;
66327;SDS011;53133;52.862;6.602;2023-06-14T04:17:55;5.10;;;3.10;;
66327;SDS011;53133;52.862;6.602;2023-06-14T04:20:22;3.55;;;2.85;;
66327;SDS011;53133;52.862;6.602;2023-06-14T04:22:49;5.82;;;2.90;;
66327;SDS011;53133;52.862;6.602;2023-06-14T04:25:15;8.07;;;3.35;;
66327;SDS011;53133;52.862;6.602;2023-06-14T04:27:40;6.20;;;2.90;;
66327;SDS011;53133;52.862;6.602;2023-06-14T04:30:06;3.75;;;3.13;;
66327;SDS011;53133;52.862;6.602;2023-06-14T04:32:32;6.65;;;2.95;;
66327;SDS011;53133;52.862;6.602;2023-06-14T04:34:58;5.20;;;3.42;;
66327;SDS011;53133;52.862;6.602;2023-06-14T04:37:27;5.32;;;3.13;;
66327;SDS011;53133;52.862;6.602;2023-06-14T04:39:54;4.70;;;3.30;;
66327;SDS011;53133;52.862;6.602;2023-06-14T04:42:21;5.05;;;3.17;;
66327;SDS011;53133;52.862;6.602;2023-06-14T04:44:50;9.35;;;4.00;;
66327;SDS011;53133;52.862;6.602;2023-06-14T04:47:16;7.72;;;3.50;;
66327;SDS011;53133;52.862;6.602;2023-06-14T04:49:42;7.80;;;3.28;;
66327;SDS011;53133;52.862;6.602;2023-06-14T04:52:09;11.55;;;3.35;;
66327;SDS011;53133;52.862;6.602;2023-06-14T04:54:39;4.95;;;3.53;;
66327;SDS011;53133;52.862;6.602;2023-06-14T04:57:08;5.90;;;3.40;;
66327;SDS011;53133;52.862;6.602;2023-06-14T04:59:39;6.22;;;3.65;;
66327;SDS011;53133;52.862;6.602;2023-06-14T05:02:05;7.35;;;3.65;;
66327;SDS011;53133;52.862;6.602;2023-06-14T05:04:32;6.15;;;3.75;;
66327;SDS011;53133;52.862;6.602;2023-06-14T05:07:01;8.45;;;3.78;;
66327;SDS011;53133;52.862;6.602;2023-06-14T05:09:27;5.18;;;3.53;;
66327;SDS011;53133;52.862;6.602;2023-06-14T05:11:53;6.43;;;3.70;;
66327;SDS011;53133;52.862;6.602;2023-06-14T05:14:18;6.72;;;4.25;;
66327;SDS011;53133;52.862;6.602;2023-06-14T05:16:45;7.35;;;4.03;;
66327;SDS011;53133;52.862;6.602;2023-06-14T05:19:11;5.47;;;3.67;;
66327;SDS011;53133;52.862;6.602;2023-06-14T05:21:36;8.75;;;4.07;;
66327;SDS011;53133;52.862;6.602;2023-06-14T05:24:02;7.35;;;3.80;;
66327;SDS011;53133;52.862;6.602;2023-06-14T05:26:28;6.55;;;3.92;;
66327;SDS011;53133;52.862;6.602;2023-06-14T05:28:57;5.25;;;4.25;;
66327;SDS011;53133;52.862;6.602;2023-06-14T05:31:23;8.27;;;4.03;;
66327;SDS011;53133;52.862;6.602;2023-06-14T05:33:50;8.80;;;4.20;;
66327;SDS011;53133;52.862;6.602;2023-06-14T05:36:16;6.43;;;3.78;;
66327;SDS011;53133;52.862;6.602;2023-06-14T05:38:42;7.78;;;3.90;;
66327;SDS011;53133;52.862;6.602;2023-06-14T05:41:08;10.15;;;4.13;;
66327;SDS011;53133;52.862;6.602;2023-06-14T05:43:33;6.45;;;3.72;;
66327;SDS011;53133;52.862;6.602;2023-06-14T05:45:59;5.88;;;4.18;;
66327;SDS011;53133;52.862;6.602;2023-06-14T05:48:25;6.43;;;4.00;;
66327;SDS011;53133;52.862;6.602;2023-06-14T05:50:50;5.07;;;3.60;;
66327;SDS011;53133;52.862;6.602;2023-06-14T05:53:16;7.55;;;3.80;;
66327;SDS011;53133;52.862;6.602;2023-06-14T05:55:42;8.40;;;3.65;;
66327;SDS011;53133;52.862;6.602;2023-06-14T05:58:08;8.15;;;3.80;;
66327;SDS011;53133;52.862;6.602;2023-06-14T06:00:33;4.03;;;3.53;;
66327;SDS011;53133;52.862;6.602;2023-06-14T06:02:59;6.07;;;3.45;;
66327;SDS011;53133;52.862;6.602;2023-06-14T06:05:25;6.57;;;3.90;;
66327;SDS011;53133;52.862;6.602;2023-06-14T06:07:51;7.15;;;4.13;;
66327;SDS011;53133;52.862;6.602;2023-06-14T06:10:17;6.85;;;4.10;;
66327;SDS011;53133;52.862;6.602;2023-06-14T06:12:43;5.90;;;3.88;;
66327;SDS011;53133;52.862;6.602;2023-06-14T06:15:09;8.95;;;4.38;;
66327;SDS011;53133;52.862;6.602;2023-06-14T06:17:38;6.90;;;3.78;;
66327;SDS011;53133;52.862;6.602;2023-06-14T06:20:04;7.50;;;3.30;;
66327;SDS011;53133;52.862;6.602;2023-06-14T06:22:32;5.75;;;3.75;;
66327;SDS011;53133;52.862;6.602;2023-06-14T06:24:58;4.88;;;3.28;;
66327;SDS011;53133;52.862;6.602;2023-06-14T06:27:24;5.38;;;3.28;;
66327;SDS011;53133;52.862;6.602;2023-06-14T06:29:50;4.03;;;3.40;;
66327;SDS011;53133;52.862;6.602;2023-06-14T06:32:16;6.65;;;3.50;;
66327;SDS011;53133;52.862;6.602;2023-06-14T06:34:42;6.28;;;3.70;;
66327;SDS011;53133;52.862;6.602;2023-06-14T06:37:08;3.53;;;3.17;;
66327;SDS011;53133;52.862;6.602;2023-06-14T06:39:34;4.72;;;3.20;;
66327;SDS011;53133;52.862;6.602;2023-06-14T06:42:00;4.93;;;3.20;;
66327;SDS011;53133;52.862;6.602;2023-06-14T06:44:25;4.20;;;3.42;;
66327;SDS011;53133;52.862;6.602;2023-06-14T06:46:51;5.25;;;3.33;;
66327;SDS011;53133;52.862;6.602;2023-06-14T06:49:17;5.18;;;3.03;;
66327;SDS011;53133;52.862;6.602;2023-06-14T06:51:42;4.35;;;3.00;;
66327;SDS011;53133;52.862;6.602;2023-06-14T06:54:09;4.03;;;2.75;;
66327;SDS011;53133;52.862;6.602;2023-06-14T06:56:35;4.95;;;3.30;;
66327;SDS011;53133;52.862;6.602;2023-06-14T06:59:01;5.50;;;3.38;;
66327;SDS011;53133;52.862;6.602;2023-06-14T07:01:26;6.65;;;2.88;;
66327;SDS011;53133;52.862;6.602;2023-06-14T07:03:54;4.30;;;2.85;;
66327;SDS011;53133;52.862;6.602;2023-06-14T07:06:20;7.60;;;4.10;;
66327;SDS011;53133;52.862;6.602;2023-06-14T07:08:46;4.40;;;2.95;;
66327;SDS011;53133;52.862;6.602;2023-06-14T07:11:13;5.00;;;2.92;;
66327;SDS011;53133;52.862;6.602;2023-06-14T07:13:39;11.07;;;3.65;;
66327;SDS011;53133;52.862;6.602;2023-06-14T07:16:05;6.93;;;3.35;;
66327;SDS011;53133;52.862;6.602;2023-06-14T07:18:31;5.70;;;3.00;;
66327;SDS011;53133;52.862;6.602;2023-06-14T07:20:56;4.47;;;3.05;;
66327;SDS011;53133;52.862;6.602;2023-06-14T07:23:23;6.47;;;3.17;;
66327;SDS011;53133;52.862;6.602;2023-06-14T07:25:48;5.32;;;2.92;;
66327;SDS011;53133;52.862;6.602;2023-06-14T07:28:14;6.95;;;3.30;;
66327;SDS011;53133;52.862;6.602;2023-06-14T07:30:41;8.50;;;2.97;;
66327;SDS011;53133;52.862;6.602;2023-06-14T07:33:06;5.78;;;3.15;;
66327;SDS011;53133;52.862;6.602;2023-06-14T07:35:33;7.00;;;3.10;;
66327;SDS011;53133;52.862;6.602;2023-06-14T07:37:59;4.53;;;2.50;;
66327;SDS011;53133;52.862;6.602;2023-06-14T07:40:24;6.78;;;2.70;;
66327;SDS011;53133;52.862;6.602;2023-06-14T07:42:50;5.30;;;2.95;;
66327;SDS011;53133;52.862;6.602;2023-06-14T07:45:16;6.75;;;2.97;;
66327;SDS011;53133;52.862;6.602;2023-06-14T07:47:42;8.73;;;2.72;;
66327;SDS011;53133;52.862;6.602;2023-06-14T07:50:08;4.90;;;2.58;;
66327;SDS011;53133;52.862;6.602;2023-06-14T07:52:34;4.88;;;2.78;;
66327;SDS011;53133;52.862;6.602;2023-06-14T07:54:59;5.85;;;3.00;;
66327;SDS011;53133;52.862;6.602;2023-06-14T07:57:25;4.72;;;2.55;;
66327;SDS011;53133;52.862;6.602;2023-06-14T07:59:51;8.73;;;2.65;;
66327;SDS011;53133;52.862;6.602;2023-06-14T08:02:17;6.55;;;2.83;;
66327;SDS011;53133;52.862;6.602;2023-06-14T08:04:43;5.45;;;2.55;;
66327;SDS011;53133;52.862;6.602;2023-06-14T08:07:08;6.07;;;2.95;;
66327;SDS011;53133;52.862;6.602;2023-06-14T08:09:34;3.88;;;2.70;;
66327;SDS011;53133;52.862;6.602;2023-06-14T08:12:03;6.45;;;2.53;;
66327;SDS011;53133;52.862;6.602;2023-06-14T08:14:32;4.43;;;2.60;;
66327;SDS011;53133;52.862;6.602;2023-06-14T08:16:58;4.50;;;2.42;;
66327;SDS011;53133;52.862;6.602;2023-06-14T08:19:24;5.38;;;2.58;;
66327;SDS011;53133;52.862;6.602;2023-06-14T08:21:50;4.32;;;2.55;;
66327;SDS011;53133;52.862;6.602;2023-06-14T08:24:15;4.50;;;2.50;;
66327;SDS011;53133;52.862;6.602;2023-06-14T08:26:42;3.15;;;2.05;;
66327;SDS011;53133;52.862;6.602;2023-06-14T08:29:07;4.25;;;2.30;;
66327;SDS011;53133;52.862;6.602;2023-06-14T08:31:33;4.30;;;2.25;;
66327;SDS011;53133;52.862;6.602;2023-06-14T08:33:59;4.97;;;2.50;;
66327;SDS011;53133;52.862;6.602;2023-06-14T08:36:24;5.28;;;2.15;;
66327;SDS011;53133;52.862;6.602;2023-06-14T08:38:50;4.57;;;2.42;;
66327;SDS011;53133;52.862;6.602;2023-06-14T08:41:20;2.88;;;2.08;;
66327;SDS011;53133;52.862;6.602;2023-06-14T08:43:48;9.10;;;2.50;;
66327;SDS011;53133;52.862;6.602;2023-06-14T08:46:14;5.93;;;2.67;;
66327;SDS011;53133;52.862;6.602;2023-06-14T08:48:44;4.50;;;2.40;;
66327;SDS011;53133;52.862;6.602;2023-06-14T08:51:15;4.05;;;2.50;;
66327;SDS011;53133;52.862;6.602;2023-06-14T08:53:44;3.67;;;2.25;;
66327;SDS011;53133;52.862;6.602;2023-06-14T08:56:10;5.72;;;2.03;;
66327;SDS011;53133;52.862;6.602;2023-06-14T08:58:42;4.30;;;2.55;;
66327;SDS011;53133;52.862;6.602;2023-06-14T09:01:10;3.92;;;2.22;;
66327;SDS011;53133;52.862;6.602;2023-06-14T09:06:08;5.63;;;2.65;;
66327;SDS011;53133;52.862;6.602;2023-06-14T09:08:40;6.18;;;2.55;;
66327;SDS011;53133;52.862;6.602;2023-06-14T09:11:16;5.05;;;2.60;;
66327;SDS011;53133;52.862;6.602;2023-06-14T09:13:44;3.75;;;2.40;;
66327;SDS011;53133;52.862;6.602;2023-06-14T09:16:11;3.58;;;2.40;;
66327;SDS011;53133;52.862;6.602;2023-06-14T09:18:40;6.63;;;2.33;;
66327;SDS011;53133;52.862;6.602;2023-06-14T09:21:10;3.20;;;2.42;;
66327;SDS011;53133;52.862;6.602;2023-06-14T09:23:37;2.72;;;2.42;;
66327;SDS011;53133;52.862;6.602;2023-06-14T09:26:22;7.32;;;2.30;;
66327;SDS011;53133;52.862;6.602;2023-06-14T09:28:52;6.22;;;2.30;;
66327;SDS011;53133;52.862;6.602;2023-06-14T09:31:18;4.63;;;2.17;;
66327;SDS011;53133;52.862;6.602;2023-06-14T09:33:45;3.92;;;2.25;;
66327;SDS011;53133;52.862;6.602;2023-06-14T09:36:21;5.10;;;2.30;;
66327;SDS011;53133;52.862;6.602;2023-06-14T09:38:54;7.20;;;2.25;;
66327;SDS011;53133;52.862;6.602;2023-06-14T09:43:58;6.85;;;2.60;;
66327;SDS011;53133;52.862;6.602;2023-06-14T09:46:28;3.75;;;2.50;;
66327;SDS011;53133;52.862;6.602;2023-06-14T09:48:58;6.90;;;2.22;;
66327;SDS011;53133;52.862;6.602;2023-06-14T09:51:24;3.10;;;2.20;;
66327;SDS011;53133;52.862;6.602;2023-06-14T09:53:51;4.10;;;2.20;;
66327;SDS011;53133;52.862;6.602;2023-06-14T09:56:41;5.00;;;2.33;;
66327;SDS011;53133;52.862;6.602;2023-06-14T09:59:06;4.35;;;2.20;;
66327;SDS011;53133;52.862;6.602;2023-06-14T10:01:34;3.47;;;2.20;;
66327;SDS011;53133;52.862;6.602;2023-06-14T10:04:03;3.78;;;2.30;;
66327;SDS011;53133;52.862;6.602;2023-06-14T10:06:30;2.90;;;1.90;;
66327;SDS011;53133;52.862;6.602;2023-06-14T10:08:57;3.00;;;1.98;;
66327;SDS011;53133;52.862;6.602;2023-06-14T10:11:30;3.78;;;1.73;;
66327;SDS011;53133;52.862;6.602;2023-06-14T10:13:56;3.60;;;2.03;;
66327;SDS011;53133;52.862;6.602;2023-06-14T10:16:24;4.25;;;1.92;;
66327;SDS011;53133;52.862;6.602;2023-06-14T10:22:00;11.82;;;2.42;;
66327;SDS011;53133;52.862;6.602;2023-06-14T10:24:33;2.35;;;1.60;;
66327;SDS011;53133;52.862;6.602;2023-06-14T10:27:07;3.85;;;2.00;;
66327;SDS011;53133;52.862;6.602;2023-06-14T10:32:22;4.88;;;2.05;;
66327;SDS011;53133;52.862;6.602;2023-06-14T10:34:56;3.40;;;1.90;;
66327;SDS011;53133;52.862;6.602;2023-06-14T10:37:23;3.33;;;2.47;;
66327;SDS011;53133;52.862;6.602;2023-06-14T10:39:52;4.10;;;1.73;;
66327;SDS011;53133;52.862;6.602;2023-06-14T10:42:18;5.18;;;2.20;;
66327;SDS011;53133;52.862;6.602;2023-06-14T10:47:23;2.72;;;2.25;;
66327;SDS011;53133;52.862;6.602;2023-06-14T10:49:51;2.80;;;1.95;;
66327;SDS011;53133;52.862;6.602;2023-06-14T10:52:21;2.78;;;1.70;;
66327;SDS011;53133;52.862;6.602;2023-06-14T10:57:29;3.95;;;1.65;;
66327;SDS011;53133;52.862;6.602;2023-06-14T10:59:57;3.03;;;1.60;;
66327;SDS011;53133;52.862;6.602;2023-06-14T11:05:26;2.42;;;1.77;;
66327;SDS011;53133;52.862;6.602;2023-06-14T11:10:37;3.15;;;1.90;;
66327;SDS011;53133;52.862;6.602;2023-06-14T11:13:03;4.28;;;2.00;;
66327;SDS011;53133;52.862;6.602;2023-06-14T11:15:30;3.47;;;1.80;;
66327;SDS011;53133;52.862;6.602;2023-06-14T11:17:57;3.42;;;2.00;;
66327;SDS011;53133;52.862;6.602;2023-06-14T11:20:25;2.28;;;1.90;;
66327;SDS011;53133;52.862;6.602;2023-06-14T11:22:52;4.40;;;2.10;;
66327;SDS011;53133;52.862;6.602;2023-06-14T11:25:18;2.78;;;1.90;;
66327;SDS011;53133;52.862;6.602;2023-06-14T11:27:44;2.58;;;1.92;;
66327;SDS011;53133;52.862;6.602;2023-06-14T11:30:11;3.95;;;2.03;;
66327;SDS011;53133;52.862;6.602;2023-06-14T11:32:38;3.38;;;1.98;;
66327;SDS011;53133;52.862;6.602;2023-06-14T11:35:04;2.22;;;1.60;;
66327;SDS011;53133;52.862;6.602;2023-06-14T11:37:31;3.42;;;1.70;;
66327;SDS011;53133;52.862;6.602;2023-06-14T11:40:00;2.75;;;1.90;;
66327;SDS011;53133;52.862;6.602;2023-06-14T11:42:28;5.28;;;2.15;;
66327;SDS011;53133;52.862;6.602;2023-06-14T11:44:55;2.60;;;1.50;;
66327;SDS011;53133;52.862;6.602;2023-06-14T11:47:21;4.75;;;1.92;;
66327;SDS011;53133;52.862;6.602;2023-06-14T11:49:47;3.05;;;1.98;;
66327;SDS011;53133;52.862;6.602;2023-06-14T11:52:13;2.10;;;1.90;;
66327;SDS011;53133;52.862;6.602;2023-06-14T11:54:39;3.97;;;1.75;;
66327;SDS011;53133;52.862;6.602;2023-06-14T11:57:08;4.55;;;2.03;;
66327;SDS011;53133;52.862;6.602;2023-06-14T11:59:38;5.00;;;1.88;;
66327;SDS011;53133;52.862;6.602;2023-06-14T12:02:05;2.75;;;2.00;;
66327;SDS011;53133;52.862;6.602;2023-06-14T12:04:31;3.33;;;1.80;;
66327;SDS011;53133;52.862;6.602;2023-06-14T12:06:57;4.30;;;1.70;;
66327;SDS011;53133;52.862;6.602;2023-06-14T12:09:34;3.17;;;2.03;;
66327;SDS011;53133;52.862;6.602;2023-06-14T12:12:00;3.08;;;1.80;;
66327;SDS011;53133;52.862;6.602;2023-06-14T12:14:30;5.10;;;1.90;;
66327;SDS011;53133;52.862;6.602;2023-06-14T12:17:05;6.00;;;2.22;;
66327;SDS011;53133;52.862;6.602;2023-06-14T12:19:32;2.50;;;1.65;;
66327;SDS011;53133;52.862;6.602;2023-06-14T12:22:01;4.18;;;1.77;;
66327;SDS011;53133;52.862;6.602;2023-06-14T12:24:30;3.25;;;1.85;;
66327;SDS011;53133;52.862;6.602;2023-06-14T12:26:59;4.18;;;1.80;;
66327;SDS011;53133;52.862;6.602;2023-06-14T12:29:27;3.25;;;2.00;;
66327;SDS011;53133;52.862;6.602;2023-06-14T12:31:56;5.68;;;2.03;;
66327;SDS011;53133;52.862;6.602;2023-06-14T12:34:25;6.32;;;2.00;;
66327;SDS011;53133;52.862;6.602;2023-06-14T12:36:55;5.60;;;2.55;;
66327;SDS011;53133;52.862;6.602;2023-06-14T12:39:21;3.10;;;1.70;;
66327;SDS011;53133;52.862;6.602;2023-06-14T12:41:47;2.50;;;1.95;;
66327;SDS011;53133;52.862;6.602;2023-06-14T12:44:13;4.13;;;1.80;;
66327;SDS011;53133;52.862;6.602;2023-06-14T12:46:40;7.00;;;2.10;;
66327;SDS011;53133;52.862;6.602;2023-06-14T12:49:09;3.53;;;1.85;;
66327;SDS011;53133;52.862;6.602;2023-06-14T12:51:36;2.95;;;1.80;;
66327;SDS011;53133;52.862;6.602;2023-06-14T12:54:02;3.63;;;1.77;;
66327;SDS011;53133;52.862;6.602;2023-06-14T12:56:28;2.08;;;1.88;;
66327;SDS011;53133;52.862;6.602;2023-06-14T12:58:53;6.65;;;2.47;;
66327;SDS011;53133;52.862;6.602;2023-06-14T13:01:19;5.22;;;1.88;;
66327;SDS011;53133;52.862;6.602;2023-06-14T13:03:48;10.52;;;2.47;;
66327;SDS011;53133;52.862;6.602;2023-06-14T13:06:15;7.50;;;2.10;;
66327;SDS011;53133;52.862;6.602;2023-06-14T13:08:41;4.22;;;1.98;;
66327;SDS011;53133;52.862;6.602;2023-06-14T13:11:06;4.20;;;1.80;;
66327;SDS011;53133;52.862;6.602;2023-06-14T13:13:32;3.75;;;1.90;;
66327;SDS011;53133;52.862;6.602;2023-06-14T13:15:58;2.88;;;1.90;;
66327;SDS011;53133;52.862;6.602;2023-06-14T13:18:23;2.40;;;1.92;;
66327;SDS011;53133;52.862;6.602;2023-06-14T13:20:49;1.80;;;1.70;;
66327;SDS011;53133;52.862;6.602;2023-06-14T13:23:15;3.88;;;2.15;;
66327;SDS011;53133;52.862;6.602;2023-06-14T13:25:41;4.15;;;1.92;;
66327;SDS011;53133;52.862;6.602;2023-06-14T13:28:06;3.05;;;1.60;;
66327;SDS011;53133;52.862;6.602;2023-06-14T13:30:32;4.03;;;2.00;;
66327;SDS011;53133;52.862;6.602;2023-06-14T13:32:59;4.60;;;2.00;;
66327;SDS011;53133;52.862;6.602;2023-06-14T13:35:25;2.20;;;1.92;;
66327;SDS011;53133;52.862;6.602;2023-06-14T13:37:51;6.35;;;2.22;;
66327;SDS011;53133;52.862;6.602;2023-06-14T13:40:17;4.13;;;2.03;;
66327;SDS011;53133;52.862;6.602;2023-06-14T13:42:42;5.68;;;1.85;;
66327;SDS011;53133;52.862;6.602;2023-06-14T13:45:11;2.58;;;2.35;;
66327;SDS011;53133;52.862;6.602;2023-06-14T13:47:37;2.58;;;1.67;;
66327;SDS011;53133;52.862;6.602;2023-06-14T13:50:03;2.80;;;1.92;;
66327;SDS011;53133;52.862;6.602;2023-06-14T13:52:30;2.47;;;1.73;;
66327;SDS011;53133;52.862;6.602;2023-06-14T13:54:55;3.97;;;2.05;;
66327;SDS011;53133;52.862;6.602;2023-06-14T13:57:21;3.95;;;1.98;;
66327;SDS011;53133;52.862;6.602;2023-06-14T13:59:47;2.45;;;1.90;;
66327;SDS011;53133;52.862;6.602;2023-06-14T14:02:13;3.13;;;2.15;;
66327;SDS011;53133;52.862;6.602;2023-06-14T14:04:39;5.40;;;2.00;;
66327;SDS011;53133;52.862;6.602;2023-06-14T14:07:05;3.58;;;1.92;;
66327;SDS011;53133;52.862;6.602;2023-06-14T14:09:32;2.45;;;1.92;;
66327;SDS011;53133;52.862;6.602;2023-06-14T14:11:59;3.40;;;1.83;;
66327;SDS011;53133;52.862;6.602;2023-06-14T14:14:26;3.38;;;1.85;;
66327;SDS011;53133;52.862;6.602;2023-06-14T14:16:52;2.65;;;2.00;;
66327;SDS011;53133;52.862;6.602;2023-06-14T14:19:19;3.05;;;2.13;;
66327;SDS011;53133;52.862;6.602;2023-06-14T14:21:46;5.68;;;2.15;;
66327;SDS011;53133;52.862;6.602;2023-06-14T14:24:11;4.90;;;2.10;;
66327;SDS011;53133;52.862;6.602;2023-06-14T14:26:40;2.78;;;1.90;;
66327;SDS011;53133;52.862;6.602;2023-06-14T14:29:06;2.40;;;1.80;;
66327;SDS011;53133;52.862;6.602;2023-06-14T14:31:32;2.65;;;2.00;;
66327;SDS011;53133;52.862;6.602;2023-06-14T14:33:57;4.97;;;2.10;;
66327;SDS011;53133;52.862;6.602;2023-06-14T14:36:23;3.53;;;2.28;;
66327;SDS011;53133;52.862;6.602;2023-06-14T14:38:49;2.95;;;1.90;;
66327;SDS011;53133;52.862;6.602;2023-06-14T14:41:16;2.17;;;1.90;;
66327;SDS011;53133;52.862;6.602;2023-06-14T14:43:42;2.90;;;2.08;;
66327;SDS011;53133;52.862;6.602;2023-06-14T14:46:08;2.97;;;1.85;;
66327;SDS011;53133;52.862;6.602;2023-06-14T14:48:33;5.32;;;1.90;;
66327;SDS011;53133;52.862;6.602;2023-06-14T14:50:59;3.42;;;2.20;;
66327;SDS011;53133;52.862;6.602;2023-06-14T14:53:24;4.97;;;2.20;;
66327;SDS011;53133;52.862;6.602;2023-06-14T14:55:56;3.40;;;2.00;;
66327;SDS011;53133;52.862;6.602;2023-06-14T14:58:22;5.90;;;2.00;;
66327;SDS011;53133;52.862;6.602;2023-06-14T15:00:47;5.53;;;2.08;;
66327;SDS011;53133;52.862;6.602;2023-06-14T15:03:13;2.33;;;2.13;;
66327;SDS011;53133;52.862;6.602;2023-06-14T15:05:39;3.85;;;2.08;;
66327;SDS011;53133;52.862;6.602;2023-06-14T15:08:05;2.63;;;2.00;;